sensor_id;sensor_type;location;lat;lon;timestamp;P1;durP1;ratioP1;P2;durP2;ratioP2
1136;SDS011;557;48.466;7.950;2022-08-19T00:02:16;25.10;;;21.90;;
1136;SDS011;557;48.466;7.950;2022-08-19T00:05:02;24.13;;;21.30;;
1136;SDS011;557;48.466;7.950;2022-08-19T00:07:49;26.70;;;22.67;;
1136;SDS011;557;48.466;7.950;2022-08-19T00:10:35;26.80;;;22.07;;
1136;SDS011;557;48.466;7.950;2022-08-19T00:13:22;25.73;;;22.43;;
1136;SDS011;557;48.466;7.950;2022-08-19T00:16:08;27.13;;;24.23;;
1136;SDS011;557;48.466;7.950;2022-08-19T00:18:54;27.77;;;23.93;;
1136;SDS011;557;48.466;7.950;2022-08-19T00:21:39;26.67;;;23.47;;
1136;SDS011;557;48.466;7.950;2022-08-19T00:24:25;27.07;;;22.57;;
1136;SDS011;557;48.466;7.950;2022-08-19T00:27:12;29.23;;;24.70;;
1136;SDS011;557;48.466;7.950;2022-08-19T00:30:00;25.80;;;23.00;;
1136;SDS011;557;48.466;7.950;2022-08-19T00:32:47;24.87;;;22.20;;
1136;SDS011;557;48.466;7.950;2022-08-19T00:35:32;28.97;;;24.50;;
1136;SDS011;557;48.466;7.950;2022-08-19T00:38:19;27.97;;;23.20;;
1136;SDS011;557;48.466;7.950;2022-08-19T00:41:06;30.03;;;24.43;;
1136;SDS011;557;48.466;7.950;2022-08-19T00:43:59;26.37;;;23.07;;
1136;SDS011;557;48.466;7.950;2022-08-19T00:46:48;29.70;;;24.20;;
1136;SDS011;557;48.466;7.950;2022-08-19T00:49:36;31.27;;;24.10;;
1136;SDS011;557;48.466;7.950;2022-08-19T00:52:27;28.30;;;24.40;;
1136;SDS011;557;48.466;7.950;2022-08-19T00:55:18;31.50;;;24.67;;
1136;SDS011;557;48.466;7.950;2022-08-19T00:58:06;28.60;;;24.40;;
1136;SDS011;557;48.466;7.950;2022-08-19T01:00:54;28.40;;;23.17;;
1136;SDS011;557;48.466;7.950;2022-08-19T01:03:42;26.87;;;22.40;;
1136;SDS011;557;48.466;7.950;2022-08-19T01:06:27;27.83;;;23.17;;
1136;SDS011;557;48.466;7.950;2022-08-19T01:09:15;24.83;;;22.20;;
1136;SDS011;557;48.466;7.950;2022-08-19T01:12:02;27.47;;;22.13;;
1136;SDS011;557;48.466;7.950;2022-08-19T01:14:51;28.50;;;23.83;;
1136;SDS011;557;48.466;7.950;2022-08-19T01:17:38;26.53;;;22.90;;
1136;SDS011;557;48.466;7.950;2022-08-19T01:20:26;30.00;;;23.50;;
1136;SDS011;557;48.466;7.950;2022-08-19T01:23:15;26.60;;;22.77;;
1136;SDS011;557;48.466;7.950;2022-08-19T01:26:01;30.50;;;22.07;;
1136;SDS011;557;48.466;7.950;2022-08-19T01:28:48;23.93;;;20.50;;
1136;SDS011;557;48.466;7.950;2022-08-19T01:31:36;25.77;;;21.53;;
1136;SDS011;557;48.466;7.950;2022-08-19T01:34:22;24.90;;;20.40;;
1136;SDS011;557;48.466;7.950;2022-08-19T01:37:10;25.17;;;21.00;;
1136;SDS011;557;48.466;7.950;2022-08-19T01:39:58;24.07;;;19.80;;
1136;SDS011;557;48.466;7.950;2022-08-19T01:42:43;24.70;;;20.20;;
1136;SDS011;557;48.466;7.950;2022-08-19T01:45:30;22.50;;;19.27;;
1136;SDS011;557;48.466;7.950;2022-08-19T01:48:17;25.83;;;20.00;;
1136;SDS011;557;48.466;7.950;2022-08-19T01:51:09;23.60;;;20.40;;
1136;SDS011;557;48.466;7.950;2022-08-19T01:53:55;22.77;;;19.30;;
1136;SDS011;557;48.466;7.950;2022-08-19T01:56:43;23.43;;;19.40;;
1136;SDS011;557;48.466;7.950;2022-08-19T01:59:29;23.27;;;19.43;;
1136;SDS011;557;48.466;7.950;2022-08-19T02:02:16;22.10;;;18.80;;
1136;SDS011;557;48.466;7.950;2022-08-19T02:05:02;26.40;;;20.97;;
1136;SDS011;557;48.466;7.950;2022-08-19T02:07:48;26.07;;;19.80;;
1136;SDS011;557;48.466;7.950;2022-08-19T02:10:37;24.00;;;20.23;;
1136;SDS011;557;48.466;7.950;2022-08-19T02:13:25;23.50;;;20.00;;
1136;SDS011;557;48.466;7.950;2022-08-19T02:16:11;25.07;;;20.03;;
1136;SDS011;557;48.466;7.950;2022-08-19T02:18:57;20.90;;;17.43;;
1136;SDS011;557;48.466;7.950;2022-08-19T02:21:44;24.00;;;19.60;;
1136;SDS011;557;48.466;7.950;2022-08-19T02:24:30;22.80;;;18.77;;
1136;SDS011;557;48.466;7.950;2022-08-19T02:27:15;23.80;;;19.77;;
1136;SDS011;557;48.466;7.950;2022-08-19T02:30:03;21.87;;;18.57;;
1136;SDS011;557;48.466;7.950;2022-08-19T02:32:50;22.17;;;18.90;;
1136;SDS011;557;48.466;7.950;2022-08-19T02:39:35;22.50;;;18.70;;
1136;SDS011;557;48.466;7.950;2022-08-19T02:42:21;19.10;;;17.03;;
1136;SDS011;557;48.466;7.950;2022-08-19T02:45:09;18.77;;;16.70;;
1136;SDS011;557;48.466;7.950;2022-08-19T02:47:55;22.70;;;17.80;;
1136;SDS011;557;48.466;7.950;2022-08-19T02:50:41;21.83;;;17.90;;
1136;SDS011;557;48.466;7.950;2022-08-19T02:53:27;21.70;;;18.40;;
1136;SDS011;557;48.466;7.950;2022-08-19T02:56:13;22.57;;;18.27;;
1136;SDS011;557;48.466;7.950;2022-08-19T02:58:59;21.10;;;17.30;;
1136;SDS011;557;48.466;7.950;2022-08-19T03:01:46;22.10;;;18.40;;
1136;SDS011;557;48.466;7.950;2022-08-19T03:04:32;25.43;;;20.87;;
1136;SDS011;557;48.466;7.950;2022-08-19T03:07:18;26.50;;;20.30;;
1136;SDS011;557;48.466;7.950;2022-08-19T03:10:04;27.03;;;21.00;;
1136;SDS011;557;48.466;7.950;2022-08-19T03:12:51;23.83;;;21.10;;
1136;SDS011;557;48.466;7.950;2022-08-19T03:15:39;27.80;;;20.90;;
1136;SDS011;557;48.466;7.950;2022-08-19T03:18:27;24.60;;;20.50;;
1136;SDS011;557;48.466;7.950;2022-08-19T03:21:14;28.73;;;21.13;;
1136;SDS011;557;48.466;7.950;2022-08-19T03:24:02;23.83;;;19.17;;
1136;SDS011;557;48.466;7.950;2022-08-19T03:26:51;20.90;;;16.77;;
1136;SDS011;557;48.466;7.950;2022-08-19T03:29:41;25.20;;;20.77;;
1136;SDS011;557;48.466;7.950;2022-08-19T03:32:39;22.47;;;18.50;;
1136;SDS011;557;48.466;7.950;2022-08-19T03:35:26;23.70;;;19.17;;
1136;SDS011;557;48.466;7.950;2022-08-19T03:38:12;23.57;;;19.90;;
1136;SDS011;557;48.466;7.950;2022-08-19T03:40:58;23.90;;;20.40;;
1136;SDS011;557;48.466;7.950;2022-08-19T03:43:50;24.70;;;19.90;;
1136;SDS011;557;48.466;7.950;2022-08-19T03:46:37;25.33;;;20.77;;
1136;SDS011;557;48.466;7.950;2022-08-19T03:49:23;29.07;;;22.67;;
1136;SDS011;557;48.466;7.950;2022-08-19T03:52:13;24.93;;;21.23;;
1136;SDS011;557;48.466;7.950;2022-08-19T03:54:59;25.40;;;21.13;;
1136;SDS011;557;48.466;7.950;2022-08-19T03:57:44;24.47;;;19.90;;
1136;SDS011;557;48.466;7.950;2022-08-19T04:00:31;25.17;;;19.37;;
1136;SDS011;557;48.466;7.950;2022-08-19T04:03:17;25.80;;;21.13;;
1136;SDS011;557;48.466;7.950;2022-08-19T04:06:09;20.20;;;18.03;;
1136;SDS011;557;48.466;7.950;2022-08-19T04:08:58;23.73;;;21.10;;
1136;SDS011;557;48.466;7.950;2022-08-19T04:11:46;25.77;;;19.87;;
1136;SDS011;557;48.466;7.950;2022-08-19T04:14:33;26.63;;;20.77;;
1136;SDS011;557;48.466;7.950;2022-08-19T04:17:19;23.70;;;20.50;;
1136;SDS011;557;48.466;7.950;2022-08-19T04:20:06;23.17;;;20.40;;
1136;SDS011;557;48.466;7.950;2022-08-19T04:22:52;24.20;;;19.00;;
1136;SDS011;557;48.466;7.950;2022-08-19T04:25:40;25.73;;;20.10;;
1136;SDS011;557;48.466;7.950;2022-08-19T04:28:27;24.93;;;19.43;;
1136;SDS011;557;48.466;7.950;2022-08-19T04:31:14;23.50;;;19.43;;
1136;SDS011;557;48.466;7.950;2022-08-19T04:34:01;21.77;;;18.20;;
1136;SDS011;557;48.466;7.950;2022-08-19T04:36:49;20.97;;;17.93;;
1136;SDS011;557;48.466;7.950;2022-08-19T04:39:37;20.10;;;17.50;;
1136;SDS011;557;48.466;7.950;2022-08-19T04:42:42;22.17;;;17.40;;
1136;SDS011;557;48.466;7.950;2022-08-19T04:45:28;20.37;;;16.10;;
1136;SDS011;557;48.466;7.950;2022-08-19T04:48:13;20.43;;;16.00;;
1136;SDS011;557;48.466;7.950;2022-08-19T04:50:59;27.53;;;17.80;;
1136;SDS011;557;48.466;7.950;2022-08-19T04:53:49;20.53;;;16.67;;
1136;SDS011;557;48.466;7.950;2022-08-19T04:56:35;18.83;;;15.13;;
1136;SDS011;557;48.466;7.950;2022-08-19T04:59:23;17.30;;;15.20;;
1136;SDS011;557;48.466;7.950;2022-08-19T05:02:09;19.17;;;16.37;;
1136;SDS011;557;48.466;7.950;2022-08-19T05:04:56;16.00;;;14.00;;
1136;SDS011;557;48.466;7.950;2022-08-19T05:07:44;19.13;;;14.73;;
1136;SDS011;557;48.466;7.950;2022-08-19T05:10:30;16.20;;;14.20;;
1136;SDS011;557;48.466;7.950;2022-08-19T05:13:16;17.10;;;14.37;;
1136;SDS011;557;48.466;7.950;2022-08-19T05:16:06;15.93;;;14.00;;
1136;SDS011;557;48.466;7.950;2022-08-19T05:18:51;14.77;;;13.17;;
1136;SDS011;557;48.466;7.950;2022-08-19T05:21:55;15.33;;;13.13;;
1136;SDS011;557;48.466;7.950;2022-08-19T05:24:58;15.00;;;13.10;;
1136;SDS011;557;48.466;7.950;2022-08-19T05:27:44;16.83;;;14.20;;
1136;SDS011;557;48.466;7.950;2022-08-19T05:30:30;16.27;;;13.40;;
1136;SDS011;557;48.466;7.950;2022-08-19T05:33:19;17.63;;;15.40;;
1136;SDS011;557;48.466;7.950;2022-08-19T05:36:05;15.97;;;14.07;;
1136;SDS011;557;48.466;7.950;2022-08-19T05:38:51;14.80;;;13.00;;
1136;SDS011;557;48.466;7.950;2022-08-19T05:41:40;18.73;;;14.80;;
1136;SDS011;557;48.466;7.950;2022-08-19T05:44:28;18.33;;;15.93;;
1136;SDS011;557;48.466;7.950;2022-08-19T05:47:15;18.40;;;16.13;;
1136;SDS011;557;48.466;7.950;2022-08-19T05:50:05;20.20;;;17.77;;
1136;SDS011;557;48.466;7.950;2022-08-19T05:52:51;19.53;;;16.00;;
1136;SDS011;557;48.466;7.950;2022-08-19T05:55:36;19.47;;;16.90;;
1136;SDS011;557;48.466;7.950;2022-08-19T05:58:23;22.80;;;17.70;;
1136;SDS011;557;48.466;7.950;2022-08-19T06:01:11;21.63;;;16.87;;
1136;SDS011;557;48.466;7.950;2022-08-19T06:03:58;21.50;;;17.07;;
1136;SDS011;557;48.466;7.950;2022-08-19T06:06:45;20.90;;;17.10;;
1136;SDS011;557;48.466;7.950;2022-08-19T06:09:31;20.63;;;17.00;;
1136;SDS011;557;48.466;7.950;2022-08-19T06:12:17;19.97;;;17.47;;
1136;SDS011;557;48.466;7.950;2022-08-19T06:15:04;18.07;;;15.47;;
1136;SDS011;557;48.466;7.950;2022-08-19T06:17:52;23.23;;;17.30;;
1136;SDS011;557;48.466;7.950;2022-08-19T06:20:38;20.93;;;18.67;;
1136;SDS011;557;48.466;7.950;2022-08-19T06:23:26;22.97;;;17.80;;
1136;SDS011;557;48.466;7.950;2022-08-19T06:26:12;23.63;;;16.50;;
1136;SDS011;557;48.466;7.950;2022-08-19T06:28:58;21.70;;;17.90;;
1136;SDS011;557;48.466;7.950;2022-08-19T06:31:45;21.07;;;17.10;;
1136;SDS011;557;48.466;7.950;2022-08-19T06:34:33;23.30;;;19.87;;
1136;SDS011;557;48.466;7.950;2022-08-19T06:37:19;25.53;;;19.30;;
1136;SDS011;557;48.466;7.950;2022-08-19T06:40:08;27.13;;;20.70;;
1136;SDS011;557;48.466;7.950;2022-08-19T06:42:56;24.00;;;19.47;;
1136;SDS011;557;48.466;7.950;2022-08-19T06:45:43;23.37;;;17.87;;
1136;SDS011;557;48.466;7.950;2022-08-19T06:48:28;24.83;;;19.97;;
1136;SDS011;557;48.466;7.950;2022-08-19T06:51:15;26.43;;;21.03;;
1136;SDS011;557;48.466;7.950;2022-08-19T06:54:03;23.43;;;19.60;;
1136;SDS011;557;48.466;7.950;2022-08-19T06:56:50;23.97;;;19.60;;
1136;SDS011;557;48.466;7.950;2022-08-19T06:59:36;23.50;;;19.37;;
1136;SDS011;557;48.466;7.950;2022-08-19T07:02:21;21.87;;;18.63;;
1136;SDS011;557;48.466;7.950;2022-08-19T07:05:10;24.10;;;18.97;;
1136;SDS011;557;48.466;7.950;2022-08-19T07:07:55;24.20;;;19.60;;
1136;SDS011;557;48.466;7.950;2022-08-19T07:10:42;24.80;;;19.80;;
1136;SDS011;557;48.466;7.950;2022-08-19T07:13:30;24.87;;;19.90;;
1136;SDS011;557;48.466;7.950;2022-08-19T07:16:18;23.60;;;20.40;;
1136;SDS011;557;48.466;7.950;2022-08-19T07:19:04;25.97;;;20.80;;
1136;SDS011;557;48.466;7.950;2022-08-19T07:21:50;25.57;;;20.50;;
1136;SDS011;557;48.466;7.950;2022-08-19T07:24:37;24.77;;;20.43;;
1136;SDS011;557;48.466;7.950;2022-08-19T07:27:29;26.40;;;19.83;;
1136;SDS011;557;48.466;7.950;2022-08-19T07:30:16;24.83;;;19.80;;
1136;SDS011;557;48.466;7.950;2022-08-19T07:33:02;26.13;;;20.70;;
1136;SDS011;557;48.466;7.950;2022-08-19T07:35:48;24.70;;;20.33;;
1136;SDS011;557;48.466;7.950;2022-08-19T07:38:34;27.10;;;20.57;;
1136;SDS011;557;48.466;7.950;2022-08-19T07:41:21;25.73;;;20.20;;
1136;SDS011;557;48.466;7.950;2022-08-19T07:44:09;22.83;;;19.07;;
1136;SDS011;557;48.466;7.950;2022-08-19T07:46:57;25.27;;;20.37;;
1136;SDS011;557;48.466;7.950;2022-08-19T07:49:43;27.97;;;22.43;;
1136;SDS011;557;48.466;7.950;2022-08-19T07:52:29;26.03;;;20.40;;
1136;SDS011;557;48.466;7.950;2022-08-19T07:55:15;25.77;;;19.50;;
1136;SDS011;557;48.466;7.950;2022-08-19T07:58:03;24.33;;;20.00;;
1136;SDS011;557;48.466;7.950;2022-08-19T08:00:50;26.40;;;20.53;;
1136;SDS011;557;48.466;7.950;2022-08-19T08:03:37;19.60;;;17.27;;
1136;SDS011;557;48.466;7.950;2022-08-19T08:06:40;22.57;;;19.30;;
1136;SDS011;557;48.466;7.950;2022-08-19T08:09:44;22.30;;;19.70;;
1136;SDS011;557;48.466;7.950;2022-08-19T08:12:32;24.20;;;20.83;;
1136;SDS011;557;48.466;7.950;2022-08-19T08:15:20;25.23;;;20.87;;
1136;SDS011;557;48.466;7.950;2022-08-19T08:18:05;19.80;;;17.33;;
1136;SDS011;557;48.466;7.950;2022-08-19T08:20:52;22.63;;;19.03;;
1136;SDS011;557;48.466;7.950;2022-08-19T08:23:38;23.33;;;20.40;;
1136;SDS011;557;48.466;7.950;2022-08-19T08:26:25;22.93;;;20.43;;
1136;SDS011;557;48.466;7.950;2022-08-19T08:29:11;26.40;;;22.70;;
1136;SDS011;557;48.466;7.950;2022-08-19T08:31:57;24.30;;;21.60;;
1136;SDS011;557;48.466;7.950;2022-08-19T08:34:43;22.83;;;20.40;;
1136;SDS011;557;48.466;7.950;2022-08-19T08:37:30;29.40;;;23.37;;
1136;SDS011;557;48.466;7.950;2022-08-19T08:40:17;24.57;;;21.80;;
1136;SDS011;557;48.466;7.950;2022-08-19T08:43:07;24.10;;;20.03;;
1136;SDS011;557;48.466;7.950;2022-08-19T08:45:59;23.93;;;20.63;;
1136;SDS011;557;48.466;7.950;2022-08-19T08:48:48;24.50;;;21.87;;
1136;SDS011;557;48.466;7.950;2022-08-19T08:51:40;23.97;;;21.47;;
1136;SDS011;557;48.466;7.950;2022-08-19T08:54:34;24.90;;;21.07;;
1136;SDS011;557;48.466;7.950;2022-08-19T08:57:23;23.90;;;20.00;;
1136;SDS011;557;48.466;7.950;2022-08-19T09:00:15;23.60;;;19.13;;
1136;SDS011;557;48.466;7.950;2022-08-19T09:03:05;24.50;;;21.63;;
1136;SDS011;557;48.466;7.950;2022-08-19T09:06:01;23.40;;;20.90;;
1136;SDS011;557;48.466;7.950;2022-08-19T09:08:52;25.43;;;21.60;;
1136;SDS011;557;48.466;7.950;2022-08-19T09:11:50;24.60;;;20.40;;
1136;SDS011;557;48.466;7.950;2022-08-19T09:14:45;25.50;;;22.90;;
1136;SDS011;557;48.466;7.950;2022-08-19T09:17:34;22.10;;;19.80;;
1136;SDS011;557;48.466;7.950;2022-08-19T09:20:22;21.97;;;19.47;;
1136;SDS011;557;48.466;7.950;2022-08-19T09:23:09;23.83;;;21.33;;
1136;SDS011;557;48.466;7.950;2022-08-19T09:25:56;22.10;;;19.90;;
1136;SDS011;557;48.466;7.950;2022-08-19T09:28:44;25.23;;;20.80;;
1136;SDS011;557;48.466;7.950;2022-08-19T09:31:30;24.00;;;21.70;;
1136;SDS011;557;48.466;7.950;2022-08-19T09:34:16;22.80;;;20.60;;
1136;SDS011;557;48.466;7.950;2022-08-19T09:37:03;24.60;;;22.25;;
1136;SDS011;557;48.466;7.950;2022-08-19T09:39:50;24.70;;;22.27;;
1136;SDS011;557;48.466;7.950;2022-08-19T09:42:36;22.73;;;20.53;;
1136;SDS011;557;48.466;7.950;2022-08-19T09:45:23;23.17;;;20.93;;
1136;SDS011;557;48.466;7.950;2022-08-19T09:48:08;24.83;;;22.33;;
1136;SDS011;557;48.466;7.950;2022-08-19T09:50:54;21.23;;;19.23;;
1136;SDS011;557;48.466;7.950;2022-08-19T09:53:46;22.60;;;20.45;;
1136;SDS011;557;48.466;7.950;2022-08-19T09:56:34;23.92;;;21.40;;
1136;SDS011;557;48.466;7.950;2022-08-19T09:59:20;24.65;;;20.90;;
1136;SDS011;557;48.466;7.950;2022-08-19T10:02:07;22.90;;;20.63;;
1136;SDS011;557;48.466;7.950;2022-08-19T10:04:53;25.63;;;23.05;;
1136;SDS011;557;48.466;7.950;2022-08-19T10:07:56;23.13;;;20.83;;
1136;SDS011;557;48.466;7.950;2022-08-19T10:10:47;24.00;;;21.67;;
1136;SDS011;557;48.466;7.950;2022-08-19T10:13:34;24.00;;;21.80;;
1136;SDS011;557;48.466;7.950;2022-08-19T10:16:21;24.13;;;21.83;;
1136;SDS011;557;48.466;7.950;2022-08-19T10:19:10;24.73;;;22.52;;
1136;SDS011;557;48.466;7.950;2022-08-19T10:21:56;25.08;;;22.75;;
1136;SDS011;557;48.466;7.950;2022-08-19T10:24:42;23.77;;;21.43;;
1136;SDS011;557;48.466;7.950;2022-08-19T10:27:27;23.43;;;21.30;;
1136;SDS011;557;48.466;7.950;2022-08-19T10:30:14;21.60;;;19.58;;
1136;SDS011;557;48.466;7.950;2022-08-19T10:33:00;20.27;;;18.35;;
1136;SDS011;557;48.466;7.950;2022-08-19T10:35:47;24.35;;;21.98;;
1136;SDS011;557;48.466;7.950;2022-08-19T10:38:33;19.20;;;17.52;;
1136;SDS011;557;48.466;7.950;2022-08-19T10:41:19;26.33;;;24.02;;
1136;SDS011;557;48.466;7.950;2022-08-19T10:44:08;26.85;;;24.20;;
1136;SDS011;557;48.466;7.950;2022-08-19T10:46:55;24.52;;;22.20;;
1136;SDS011;557;48.466;7.950;2022-08-19T10:49:42;25.67;;;23.23;;
1136;SDS011;557;48.466;7.950;2022-08-19T10:52:48;24.85;;;22.55;;
1136;SDS011;557;48.466;7.950;2022-08-19T10:55:34;23.80;;;21.40;;
1136;SDS011;557;48.466;7.950;2022-08-19T10:58:38;23.98;;;21.23;;
1136;SDS011;557;48.466;7.950;2022-08-19T11:01:25;22.88;;;20.67;;
1136;SDS011;557;48.466;7.950;2022-08-19T11:04:13;21.97;;;19.97;;
1136;SDS011;557;48.466;7.950;2022-08-19T11:07:01;23.80;;;21.63;;
1136;SDS011;557;48.466;7.950;2022-08-19T11:09:49;22.47;;;20.43;;
1136;SDS011;557;48.466;7.950;2022-08-19T11:12:36;21.10;;;19.10;;
1136;SDS011;557;48.466;7.950;2022-08-19T11:15:23;21.90;;;19.77;;
1136;SDS011;557;48.466;7.950;2022-08-19T11:18:08;22.38;;;20.23;;
1136;SDS011;557;48.466;7.950;2022-08-19T11:20:54;19.73;;;17.98;;
1136;SDS011;557;48.466;7.950;2022-08-19T11:23:40;23.33;;;21.33;;
1136;SDS011;557;48.466;7.950;2022-08-19T11:26:29;21.95;;;20.05;;
1136;SDS011;557;48.466;7.950;2022-08-19T11:29:15;22.88;;;20.85;;
1136;SDS011;557;48.466;7.950;2022-08-19T11:32:04;22.33;;;20.27;;
1136;SDS011;557;48.466;7.950;2022-08-19T11:34:51;20.33;;;18.63;;
1136;SDS011;557;48.466;7.950;2022-08-19T11:37:45;23.10;;;21.10;;
1136;SDS011;557;48.466;7.950;2022-08-19T11:40:32;21.42;;;19.67;;
1136;SDS011;557;48.466;7.950;2022-08-19T11:43:19;23.30;;;21.40;;
1136;SDS011;557;48.466;7.950;2022-08-19T11:46:05;22.50;;;20.58;;
1136;SDS011;557;48.466;7.950;2022-08-19T11:48:52;23.13;;;21.23;;
1136;SDS011;557;48.466;7.950;2022-08-19T11:51:38;25.08;;;22.98;;
1136;SDS011;557;48.466;7.950;2022-08-19T11:54:25;25.60;;;23.50;;
1136;SDS011;557;48.466;7.950;2022-08-19T11:57:11;21.98;;;20.25;;
1136;SDS011;557;48.466;7.950;2022-08-19T11:59:59;25.73;;;23.60;;
1136;SDS011;557;48.466;7.950;2022-08-19T12:02:46;22.30;;;20.50;;
1136;SDS011;557;48.466;7.950;2022-08-19T12:05:38;26.27;;;23.88;;
1136;SDS011;557;48.466;7.950;2022-08-19T12:08:25;24.67;;;22.77;;
1136;SDS011;557;48.466;7.950;2022-08-19T12:11:11;24.88;;;22.85;;
1136;SDS011;557;48.466;7.950;2022-08-19T12:13:58;26.70;;;24.70;;
1136;SDS011;557;48.466;7.950;2022-08-19T12:16:45;25.23;;;23.15;;
1136;SDS011;557;48.466;7.950;2022-08-19T12:19:31;23.65;;;21.77;;
1136;SDS011;557;48.466;7.950;2022-08-19T12:22:17;26.13;;;24.13;;
1136;SDS011;557;48.466;7.950;2022-08-19T12:25:05;24.73;;;22.92;;
1136;SDS011;557;48.466;7.950;2022-08-19T12:27:51;24.60;;;22.80;;
1136;SDS011;557;48.466;7.950;2022-08-19T12:30:37;28.23;;;26.08;;
1136;SDS011;557;48.466;7.950;2022-08-19T12:33:25;27.60;;;25.48;;
1136;SDS011;557;48.466;7.950;2022-08-19T12:36:12;26.85;;;24.85;;
1136;SDS011;557;48.466;7.950;2022-08-19T12:39:00;27.08;;;24.98;;
1136;SDS011;557;48.466;7.950;2022-08-19T12:41:45;26.65;;;24.48;;
1136;SDS011;557;48.466;7.950;2022-08-19T12:44:31;27.33;;;24.98;;
1136;SDS011;557;48.466;7.950;2022-08-19T12:47:17;28.52;;;26.08;;
1136;SDS011;557;48.466;7.950;2022-08-19T12:50:06;28.92;;;26.63;;
1136;SDS011;557;48.466;7.950;2022-08-19T12:52:52;29.23;;;26.70;;
1136;SDS011;557;48.466;7.950;2022-08-19T12:55:38;27.55;;;25.70;;
1136;SDS011;557;48.466;7.950;2022-08-19T12:58:24;26.70;;;24.80;;
1136;SDS011;557;48.466;7.950;2022-08-19T13:01:13;26.48;;;24.38;;
1136;SDS011;557;48.466;7.950;2022-08-19T13:04:02;29.05;;;26.95;;
1136;SDS011;557;48.466;7.950;2022-08-19T13:06:50;28.00;;;25.85;;
1136;SDS011;557;48.466;7.950;2022-08-19T13:09:37;29.20;;;26.77;;
1136;SDS011;557;48.466;7.950;2022-08-19T13:12:24;28.48;;;26.38;;
1136;SDS011;557;48.466;7.950;2022-08-19T13:15:11;26.80;;;25.00;;
1136;SDS011;557;48.466;7.950;2022-08-19T13:17:58;26.50;;;24.67;;
1136;SDS011;557;48.466;7.950;2022-08-19T13:20:44;26.88;;;24.98;;
1136;SDS011;557;48.466;7.950;2022-08-19T13:23:31;29.38;;;27.30;;
1136;SDS011;557;48.466;7.950;2022-08-19T13:26:17;27.45;;;25.55;;
1136;SDS011;557;48.466;7.950;2022-08-19T13:29:03;28.27;;;26.33;;
1136;SDS011;557;48.466;7.950;2022-08-19T13:32:07;27.83;;;25.83;;
1136;SDS011;557;48.466;7.950;2022-08-19T13:35:10;24.83;;;23.17;;
1136;SDS011;557;48.466;7.950;2022-08-19T13:37:56;26.70;;;24.90;;
1136;SDS011;557;48.466;7.950;2022-08-19T13:40:43;27.52;;;25.67;;
1136;SDS011;557;48.466;7.950;2022-08-19T13:43:30;28.95;;;26.85;;
1136;SDS011;557;48.466;7.950;2022-08-19T13:46:15;28.85;;;26.85;;
1136;SDS011;557;48.466;7.950;2022-08-19T13:49:01;26.83;;;25.02;;
1136;SDS011;557;48.466;7.950;2022-08-19T13:51:48;27.83;;;26.02;;
1136;SDS011;557;48.466;7.950;2022-08-19T13:54:34;27.33;;;25.50;;
1136;SDS011;557;48.466;7.950;2022-08-19T13:57:21;29.50;;;27.50;;
1136;SDS011;557;48.466;7.950;2022-08-19T14:00:08;28.92;;;26.85;;
1136;SDS011;557;48.466;7.950;2022-08-19T14:02:56;29.02;;;27.13;;
1136;SDS011;557;48.466;7.950;2022-08-19T14:05:42;27.58;;;25.58;;
1136;SDS011;557;48.466;7.950;2022-08-19T14:08:29;27.33;;;25.10;;
1136;SDS011;557;48.466;7.950;2022-08-19T14:11:15;27.17;;;25.40;;
1136;SDS011;557;48.466;7.950;2022-08-19T14:14:03;25.25;;;23.55;;
1136;SDS011;557;48.466;7.950;2022-08-19T14:16:49;24.90;;;23.13;;
1136;SDS011;557;48.466;7.950;2022-08-19T14:19:35;24.88;;;23.17;;
1136;SDS011;557;48.466;7.950;2022-08-19T14:22:21;24.98;;;22.98;;
1136;SDS011;557;48.466;7.950;2022-08-19T14:25:07;25.75;;;23.85;;
1136;SDS011;557;48.466;7.950;2022-08-19T14:27:56;23.92;;;22.30;;
1136;SDS011;557;48.466;7.950;2022-08-19T14:30:43;22.55;;;21.05;;
1136;SDS011;557;48.466;7.950;2022-08-19T14:33:29;23.52;;;21.92;;
1136;SDS011;557;48.466;7.950;2022-08-19T14:36:24;23.83;;;22.20;;
1136;SDS011;557;48.466;7.950;2022-08-19T14:39:10;22.85;;;21.33;;
1136;SDS011;557;48.466;7.950;2022-08-19T14:41:56;22.50;;;20.90;;
1136;SDS011;557;48.466;7.950;2022-08-19T14:44:42;24.10;;;22.33;;
1136;SDS011;557;48.466;7.950;2022-08-19T14:47:29;23.20;;;21.58;;
1136;SDS011;557;48.466;7.950;2022-08-19T14:50:15;23.33;;;21.80;;
1136;SDS011;557;48.466;7.950;2022-08-19T14:53:02;24.48;;;22.77;;
1136;SDS011;557;48.466;7.950;2022-08-19T14:55:49;23.50;;;21.75;;
1136;SDS011;557;48.466;7.950;2022-08-19T14:58:35;22.98;;;21.45;;
1136;SDS011;557;48.466;7.950;2022-08-19T15:01:21;23.58;;;21.95;;
1136;SDS011;557;48.466;7.950;2022-08-19T15:04:09;22.42;;;20.98;;
1136;SDS011;557;48.466;7.950;2022-08-19T15:06:55;22.60;;;21.00;;
1136;SDS011;557;48.466;7.950;2022-08-19T15:09:41;22.27;;;20.67;;
1136;SDS011;557;48.466;7.950;2022-08-19T15:12:27;22.67;;;21.08;;
1136;SDS011;557;48.466;7.950;2022-08-19T15:15:13;23.90;;;22.20;;
1136;SDS011;557;48.466;7.950;2022-08-19T15:18:01;23.15;;;21.55;;
1136;SDS011;557;48.466;7.950;2022-08-19T15:20:49;23.35;;;21.67;;
1136;SDS011;557;48.466;7.950;2022-08-19T15:23:35;22.17;;;20.73;;
1136;SDS011;557;48.466;7.950;2022-08-19T15:26:21;22.33;;;20.83;;
1136;SDS011;557;48.466;7.950;2022-08-19T15:29:08;22.27;;;20.77;;
1136;SDS011;557;48.466;7.950;2022-08-19T15:32:00;23.20;;;21.50;;
1136;SDS011;557;48.466;7.950;2022-08-19T15:34:46;20.95;;;19.48;;
1136;SDS011;557;48.466;7.950;2022-08-19T15:37:34;21.65;;;20.25;;
1136;SDS011;557;48.466;7.950;2022-08-19T15:40:21;20.55;;;19.05;;
1136;SDS011;557;48.466;7.950;2022-08-19T15:43:09;21.70;;;20.30;;
1136;SDS011;557;48.466;7.950;2022-08-19T15:45:55;20.65;;;19.33;;
1136;SDS011;557;48.466;7.950;2022-08-19T15:48:41;21.92;;;20.35;;
1136;SDS011;557;48.466;7.950;2022-08-19T15:51:27;21.70;;;20.20;;
1136;SDS011;557;48.466;7.950;2022-08-19T15:54:16;22.05;;;20.65;;
1136;SDS011;557;48.466;7.950;2022-08-19T15:57:04;21.58;;;20.08;;
1136;SDS011;557;48.466;7.950;2022-08-19T16:00:07;22.27;;;20.77;;
1136;SDS011;557;48.466;7.950;2022-08-19T16:03:12;21.85;;;20.45;;
1136;SDS011;557;48.466;7.950;2022-08-19T16:06:16;22.65;;;21.15;;
1136;SDS011;557;48.466;7.950;2022-08-19T16:09:11;22.85;;;21.38;;
1136;SDS011;557;48.466;7.950;2022-08-19T16:11:59;23.10;;;21.60;;
1136;SDS011;557;48.466;7.950;2022-08-19T16:14:47;23.60;;;22.00;;
1136;SDS011;557;48.466;7.950;2022-08-19T16:17:34;23.50;;;22.00;;
1136;SDS011;557;48.466;7.950;2022-08-19T16:20:19;24.23;;;22.52;;
1136;SDS011;557;48.466;7.950;2022-08-19T16:23:05;23.20;;;21.70;;
1136;SDS011;557;48.466;7.950;2022-08-19T16:25:51;21.98;;;20.63;;
1136;SDS011;557;48.466;7.950;2022-08-19T16:28:39;23.48;;;21.85;;
1136;SDS011;557;48.466;7.950;2022-08-19T16:31:25;23.15;;;21.65;;
1136;SDS011;557;48.466;7.950;2022-08-19T16:34:12;23.25;;;21.75;;
1136;SDS011;557;48.466;7.950;2022-08-19T16:36:58;24.55;;;22.77;;
1136;SDS011;557;48.466;7.950;2022-08-19T16:39:43;24.25;;;22.45;;
1136;SDS011;557;48.466;7.950;2022-08-19T16:42:29;23.17;;;21.67;;
1136;SDS011;557;48.466;7.950;2022-08-19T16:45:18;23.45;;;21.70;;
1136;SDS011;557;48.466;7.950;2022-08-19T16:48:04;23.85;;;22.25;;
1136;SDS011;557;48.466;7.950;2022-08-19T16:50:50;23.35;;;21.77;;
1136;SDS011;557;48.466;7.950;2022-08-19T16:53:37;23.70;;;22.10;;
1136;SDS011;557;48.466;7.950;2022-08-19T16:56:26;24.00;;;22.40;;
1136;SDS011;557;48.466;7.950;2022-08-19T16:59:11;22.88;;;21.17;;
1136;SDS011;557;48.466;7.950;2022-08-19T17:01:59;23.00;;;21.30;;
1136;SDS011;557;48.466;7.950;2022-08-19T17:04:45;23.25;;;21.65;;
1136;SDS011;557;48.466;7.950;2022-08-19T17:07:32;24.33;;;22.40;;
1136;SDS011;557;48.466;7.950;2022-08-19T17:10:18;22.67;;;21.08;;